sensor_id;sensor_type;location;lat;lon;timestamp;temperature;humidity
39033;DHT22;24794;51.982;5.878;2023-05-23T00:00:42;17.20;99.90
39033;DHT22;24794;51.982;5.878;2023-05-23T00:01:44;17.20;99.90
39033;DHT22;24794;51.982;5.878;2023-05-23T00:02:45;17.20;99.90
39033;DHT22;24794;51.982;5.878;2023-05-23T00:03:46;17.20;99.90
39033;DHT22;24794;51.982;5.878;2023-05-23T00:04:48;17.10;99.90
39033;DHT22;24794;51.982;5.878;2023-05-23T00:05:49;17.10;99.90
39033;DHT22;24794;51.982;5.878;2023-05-23T00:06:50;17.10;99.90
39033;DHT22;24794;51.982;5.878;2023-05-23T00:07:50;17.10;99.90
39033;DHT22;24794;51.982;5.878;2023-05-23T00:08:51;17.10;99.90
39033;DHT22;24794;51.982;5.878;2023-05-23T00:09:52;17.10;99.90
39033;DHT22;24794;51.982;5.878;2023-05-23T00:10:52;17.10;99.90
39033;DHT22;24794;51.982;5.878;2023-05-23T00:11:53;17.10;99.90
39033;DHT22;24794;51.982;5.878;2023-05-23T00:12:54;17.10;99.90
39033;DHT22;24794;51.982;5.878;2023-05-23T00:13:57;17.10;99.90
39033;DHT22;24794;51.982;5.878;2023-05-23T00:15:00;17.10;99.90
39033;DHT22;24794;51.982;5.878;2023-05-23T00:16:02;17.10;99.90
39033;DHT22;24794;51.982;5.878;2023-05-23T00:17:02;17.10;99.90
39033;DHT22;24794;51.982;5.878;2023-05-23T00:18:04;17.10;99.90
39033;DHT22;24794;51.982;5.878;2023-05-23T00:19:04;17.10;99.90
39033;DHT22;24794;51.982;5.878;2023-05-23T00:20:06;17.00;99.90
39033;DHT22;24794;51.982;5.878;2023-05-23T00:21:10;17.00;99.90
39033;DHT22;24794;51.982;5.878;2023-05-23T00:22:12;17.00;99.90
39033;DHT22;24794;51.982;5.878;2023-05-23T00:23:15;17.00;99.90
39033;DHT22;24794;51.982;5.878;2023-05-23T00:24:18;17.00;99.90
39033;DHT22;24794;51.982;5.878;2023-05-23T00:25:19;17.00;99.90
39033;DHT22;24794;51.982;5.878;2023-05-23T00:26:21;16.90;99.90
39033;DHT22;24794;51.982;5.878;2023-05-23T00:27:23;16.90;99.90
39033;DHT22;24794;51.982;5.878;2023-05-23T00:28:23;16.90;99.90
39033;DHT22;24794;51.982;5.878;2023-05-23T00:29:25;16.90;99.90
39033;DHT22;24794;51.982;5.878;2023-05-23T00:30:27;16.90;99.90
39033;DHT22;24794;51.982;5.878;2023-05-23T00:31:27;16.80;99.90
39033;DHT22;24794;51.982;5.878;2023-05-23T00:32:28;16.80;99.90
39033;DHT22;24794;51.982;5.878;2023-05-23T00:33:30;16.90;99.90
39033;DHT22;24794;51.982;5.878;2023-05-23T00:34:32;16.90;99.90
39033;DHT22;24794;51.982;5.878;2023-05-23T00:35:33;16.80;99.90
39033;DHT22;24794;51.982;5.878;2023-05-23T00:36:34;16.80;99.90
39033;DHT22;24794;51.982;5.878;2023-05-23T00:37:36;16.80;99.90
39033;DHT22;24794;51.982;5.878;2023-05-23T00:38:37;16.80;99.90
39033;DHT22;24794;51.982;5.878;2023-05-23T00:39:38;16.80;99.90
39033;DHT22;24794;51.982;5.878;2023-05-23T00:40:39;16.70;99.90
39033;DHT22;24794;51.982;5.878;2023-05-23T00:41:40;16.70;99.90
39033;DHT22;24794;51.982;5.878;2023-05-23T00:42:40;16.70;99.90
39033;DHT22;24794;51.982;5.878;2023-05-23T00:43:41;16.70;99.90
39033;DHT22;24794;51.982;5.878;2023-05-23T00:44:41;16.70;99.90
39033;DHT22;24794;51.982;5.878;2023-05-23T00:45:42;16.70;99.90
39033;DHT22;24794;51.982;5.878;2023-05-23T00:46:44;16.70;99.90
39033;DHT22;24794;51.982;5.878;2023-05-23T00:47:48;16.60;99.90
39033;DHT22;24794;51.982;5.878;2023-05-23T00:48:50;16.60;99.90
39033;DHT22;24794;51.982;5.878;2023-05-23T00:49:51;16.60;99.90
39033;DHT22;24794;51.982;5.878;2023-05-23T00:50:52;16.60;99.90
39033;DHT22;24794;51.982;5.878;2023-05-23T00:51:53;16.60;99.90
39033;DHT22;24794;51.982;5.878;2023-05-23T00:52:54;16.60;99.90
39033;DHT22;24794;51.982;5.878;2023-05-23T00:53:56;16.60;99.90
39033;DHT22;24794;51.982;5.878;2023-05-23T00:55:00;16.50;99.90
39033;DHT22;24794;51.982;5.878;2023-05-23T00:56:01;16.50;99.90
39033;DHT22;24794;51.982;5.878;2023-05-23T00:57:02;16.50;99.90
39033;DHT22;24794;51.982;5.878;2023-05-23T00:58:03;16.50;99.90
39033;DHT22;24794;51.982;5.878;2023-05-23T00:59:04;16.50;99.90
39033;DHT22;24794;51.982;5.878;2023-05-23T01:00:12;16.50;99.90
39033;DHT22;24794;51.982;5.878;2023-05-23T01:01:14;16.40;99.90
39033;DHT22;24794;51.982;5.878;2023-05-23T01:02:16;16.50;99.90
39033;DHT22;24794;51.982;5.878;2023-05-23T01:03:17;16.40;99.90
39033;DHT22;24794;51.982;5.878;2023-05-23T01:04:18;16.40;99.90
39033;DHT22;24794;51.982;5.878;2023-05-23T01:05:20;16.40;99.90
39033;DHT22;24794;51.982;5.878;2023-05-23T01:06:21;16.40;99.90
39033;DHT22;24794;51.982;5.878;2023-05-23T01:07:22;16.40;99.90
39033;DHT22;24794;51.982;5.878;2023-05-23T01:08:22;16.50;99.90
39033;DHT22;24794;51.982;5.878;2023-05-23T01:09:24;16.40;99.90
39033;DHT22;24794;51.982;5.878;2023-05-23T01:10:28;16.40;99.90
39033;DHT22;24794;51.982;5.878;2023-05-23T01:11:38;16.40;99.90
39033;DHT22;24794;51.982;5.878;2023-05-23T01:14:06;16.30;99.90
39033;DHT22;24794;51.982;5.878;2023-05-23T01:15:16;16.30;99.90
39033;DHT22;24794;51.982;5.878;2023-05-23T01:16:33;16.30;99.90
39033;DHT22;24794;51.982;5.878;2023-05-23T01:18:56;16.20;99.90
39033;DHT22;24794;51.982;5.878;2023-05-23T01:21:11;16.20;99.90
39033;DHT22;24794;51.982;5.878;2023-05-23T01:23:56;16.20;99.90
39033;DHT22;24794;51.982;5.878;2023-05-23T01:25:18;16.20;99.90
39033;DHT22;24794;51.982;5.878;2023-05-23T01:26:31;16.10;99.90
39033;DHT22;24794;51.982;5.878;2023-05-23T01:28:49;16.10;99.90
39033;DHT22;24794;51.982;5.878;2023-05-23T01:29:56;16.10;99.90
39033;DHT22;24794;51.982;5.878;2023-05-23T01:30:58;16.10;99.90
39033;DHT22;24794;51.982;5.878;2023-05-23T01:32:03;16.10;99.90
39033;DHT22;24794;51.982;5.878;2023-05-23T01:33:07;16.10;99.90
39033;DHT22;24794;51.982;5.878;2023-05-23T01:34:09;16.10;99.90
39033;DHT22;24794;51.982;5.878;2023-05-23T01:35:09;16.10;99.90
39033;DHT22;24794;51.982;5.878;2023-05-23T01:36:12;16.10;99.90
39033;DHT22;24794;51.982;5.878;2023-05-23T01:37:14;16.10;99.90
39033;DHT22;24794;51.982;5.878;2023-05-23T01:38:17;16.10;99.90
39033;DHT22;24794;51.982;5.878;2023-05-23T01:39:18;16.10;99.90
39033;DHT22;24794;51.982;5.878;2023-05-23T01:40:19;16.10;99.90
39033;DHT22;24794;51.982;5.878;2023-05-23T01:41:20;16.10;99.90
39033;DHT22;24794;51.982;5.878;2023-05-23T01:42:20;16.10;99.90
39033;DHT22;24794;51.982;5.878;2023-05-23T01:43:22;16.10;99.90
39033;DHT22;24794;51.982;5.878;2023-05-23T01:44:23;16.10;99.90
39033;DHT22;24794;51.982;5.878;2023-05-23T01:45:25;16.00;99.90
39033;DHT22;24794;51.982;5.878;2023-05-23T01:46:27;16.10;99.90
39033;DHT22;24794;51.982;5.878;2023-05-23T01:47:29;16.00;99.90
39033;DHT22;24794;51.982;5.878;2023-05-23T01:48:30;16.10;99.90
39033;DHT22;24794;51.982;5.878;2023-05-23T01:49:31;16.10;99.90
39033;DHT22;24794;51.982;5.878;2023-05-23T01:50:33;16.00;99.90
39033;DHT22;24794;51.982;5.878;2023-05-23T01:51:34;16.00;99.90
39033;DHT22;24794;51.982;5.878;2023-05-23T01:52:36;16.00;99.90
39033;DHT22;24794;51.982;5.878;2023-05-23T01:53:37;16.00;99.90
39033;DHT22;24794;51.982;5.878;2023-05-23T01:54:37;16.00;99.90
39033;DHT22;24794;51.982;5.878;2023-05-23T01:55:40;16.00;99.90
39033;DHT22;24794;51.982;5.878;2023-05-23T01:56:41;16.00;99.90
39033;DHT22;24794;51.982;5.878;2023-05-23T01:57:43;16.00;99.90
39033;DHT22;24794;51.982;5.878;2023-05-23T01:58:45;15.90;99.90
39033;DHT22;24794;51.982;5.878;2023-05-23T01:59:46;15.90;99.90
39033;DHT22;24794;51.982;5.878;2023-05-23T02:00:46;15.90;99.90
39033;DHT22;24794;51.982;5.878;2023-05-23T02:01:47;15.90;99.90
39033;DHT22;24794;51.982;5.878;2023-05-23T02:02:48;16.00;99.90
39033;DHT22;24794;51.982;5.878;2023-05-23T02:03:48;15.90;99.90
39033;DHT22;24794;51.982;5.878;2023-05-23T02:04:49;16.00;99.90
39033;DHT22;24794;51.982;5.878;2023-05-23T02:05:49;16.00;99.90
39033;DHT22;24794;51.982;5.878;2023-05-23T02:06:50;15.90;99.90
39033;DHT22;24794;51.982;5.878;2023-05-23T02:07:50;15.90;99.90
39033;DHT22;24794;51.982;5.878;2023-05-23T02:08:51;15.90;99.90
39033;DHT22;24794;51.982;5.878;2023-05-23T02:09:52;15.90;99.90
39033;DHT22;24794;51.982;5.878;2023-05-23T02:10:52;15.90;99.90
39033;DHT22;24794;51.982;5.878;2023-05-23T02:11:53;15.90;99.90
39033;DHT22;24794;51.982;5.878;2023-05-23T02:12:53;15.90;99.90
39033;DHT22;24794;51.982;5.878;2023-05-23T02:13:54;15.90;99.90
39033;DHT22;24794;51.982;5.878;2023-05-23T02:14:54;15.90;99.90
39033;DHT22;24794;51.982;5.878;2023-05-23T02:15:56;15.90;99.90
39033;DHT22;24794;51.982;5.878;2023-05-23T02:16:56;15.90;99.90
39033;DHT22;24794;51.982;5.878;2023-05-23T02:17:57;15.90;99.90
39033;DHT22;24794;51.982;5.878;2023-05-23T02:18:57;15.90;99.90
39033;DHT22;24794;51.982;5.878;2023-05-23T02:19:58;15.80;99.90
39033;DHT22;24794;51.982;5.878;2023-05-23T02:20:59;15.80;99.90
39033;DHT22;24794;51.982;5.878;2023-05-23T02:21:59;15.90;99.90
39033;DHT22;24794;51.982;5.878;2023-05-23T02:23:00;15.90;99.90
39033;DHT22;24794;51.982;5.878;2023-05-23T02:24:00;15.90;99.90
39033;DHT22;24794;51.982;5.878;2023-05-23T02:25:01;15.90;99.90
39033;DHT22;24794;51.982;5.878;2023-05-23T02:26:01;15.90;99.90
39033;DHT22;24794;51.982;5.878;2023-05-23T02:27:02;15.90;99.90
39033;DHT22;24794;51.982;5.878;2023-05-23T02:28:03;16.00;99.90
39033;DHT22;24794;51.982;5.878;2023-05-23T02:29:03;16.00;99.90
39033;DHT22;24794;51.982;5.878;2023-05-23T02:30:04;16.00;99.90
39033;DHT22;24794;51.982;5.878;2023-05-23T02:31:05;16.00;99.90
39033;DHT22;24794;51.982;5.878;2023-05-23T02:32:06;16.00;99.90
39033;DHT22;24794;51.982;5.878;2023-05-23T02:33:06;16.00;99.90
39033;DHT22;24794;51.982;5.878;2023-05-23T02:34:07;15.90;99.90
39033;DHT22;24794;51.982;5.878;2023-05-23T02:35:08;16.00;99.90
39033;DHT22;24794;51.982;5.878;2023-05-23T02:36:09;16.00;99.90
39033;DHT22;24794;51.982;5.878;2023-05-23T02:37:10;16.00;99.90
39033;DHT22;24794;51.982;5.878;2023-05-23T02:38:10;16.00;99.90
39033;DHT22;24794;51.982;5.878;2023-05-23T02:39:11;16.00;99.90
39033;DHT22;24794;51.982;5.878;2023-05-23T02:40:12;16.10;99.90
39033;DHT22;24794;51.982;5.878;2023-05-23T02:41:13;16.10;99.90
39033;DHT22;24794;51.982;5.878;2023-05-23T02:42:13;16.10;99.90
39033;DHT22;24794;51.982;5.878;2023-05-23T02:43:14;16.00;99.90
39033;DHT22;24794;51.982;5.878;2023-05-23T02:44:14;16.00;99.90
39033;DHT22;24794;51.982;5.878;2023-05-23T02:45:16;16.00;99.90
39033;DHT22;24794;51.982;5.878;2023-05-23T02:46:17;16.00;99.90
39033;DHT22;24794;51.982;5.878;2023-05-23T02:47:18;16.00;99.90
39033;DHT22;24794;51.982;5.878;2023-05-23T02:48:19;16.00;99.90
39033;DHT22;24794;51.982;5.878;2023-05-23T02:49:19;16.00;99.90
39033;DHT22;24794;51.982;5.878;2023-05-23T02:50:20;15.90;99.90
39033;DHT22;24794;51.982;5.878;2023-05-23T02:51:20;15.90;99.90
39033;DHT22;24794;51.982;5.878;2023-05-23T02:52:21;15.90;99.90
39033;DHT22;24794;51.982;5.878;2023-05-23T02:53:21;15.90;99.90
39033;DHT22;24794;51.982;5.878;2023-05-23T02:54:22;15.90;99.90
39033;DHT22;24794;51.982;5.878;2023-05-23T02:55:22;15.90;99.90
39033;DHT22;24794;51.982;5.878;2023-05-23T02:56:23;15.90;99.90
39033;DHT22;24794;51.982;5.878;2023-05-23T02:57:23;15.90;99.90
39033;DHT22;24794;51.982;5.878;2023-05-23T02:58:24;15.90;99.90
39033;DHT22;24794;51.982;5.878;2023-05-23T02:59:24;15.90;99.90
39033;DHT22;24794;51.982;5.878;2023-05-23T03:00:26;15.90;99.90
39033;DHT22;24794;51.982;5.878;2023-05-23T03:01:27;15.90;99.90
39033;DHT22;24794;51.982;5.878;2023-05-23T03:02:27;15.90;99.90
39033;DHT22;24794;51.982;5.878;2023-05-23T03:03:28;15.90;99.90
39033;DHT22;24794;51.982;5.878;2023-05-23T03:04:30;15.90;99.90
39033;DHT22;24794;51.982;5.878;2023-05-23T03:05:31;15.90;99.90
39033;DHT22;24794;51.982;5.878;2023-05-23T03:06:31;15.90;99.90
39033;DHT22;24794;51.982;5.878;2023-05-23T03:07:33;15.90;99.90
39033;DHT22;24794;51.982;5.878;2023-05-23T03:08:33;15.80;99.90
39033;DHT22;24794;51.982;5.878;2023-05-23T03:09:34;15.80;99.90
39033;DHT22;24794;51.982;5.878;2023-05-23T03:10:35;15.80;99.90
39033;DHT22;24794;51.982;5.878;2023-05-23T03:11:36;15.80;99.90
39033;DHT22;24794;51.982;5.878;2023-05-23T03:12:36;15.80;99.90
39033;DHT22;24794;51.982;5.878;2023-05-23T03:13:37;15.80;99.90
39033;DHT22;24794;51.982;5.878;2023-05-23T03:14:37;15.80;99.90
39033;DHT22;24794;51.982;5.878;2023-05-23T03:15:38;15.80;99.90
39033;DHT22;24794;51.982;5.878;2023-05-23T03:16:38;15.80;99.90
39033;DHT22;24794;51.982;5.878;2023-05-23T03:17:39;15.70;99.90
39033;DHT22;24794;51.982;5.878;2023-05-23T03:18:40;15.70;99.90
39033;DHT22;24794;51.982;5.878;2023-05-23T03:19:43;15.70;99.90
39033;DHT22;24794;51.982;5.878;2023-05-23T03:20:44;15.70;99.90
39033;DHT22;24794;51.982;5.878;2023-05-23T03:21:44;15.70;99.90
39033;DHT22;24794;51.982;5.878;2023-05-23T03:22:45;15.70;99.90
39033;DHT22;24794;51.982;5.878;2023-05-23T03:23:45;15.70;99.90
39033;DHT22;24794;51.982;5.878;2023-05-23T03:24:46;15.70;99.90
39033;DHT22;24794;51.982;5.878;2023-05-23T03:25:46;15.70;99.90
39033;DHT22;24794;51.982;5.878;2023-05-23T03:26:47;15.70;99.90
39033;DHT22;24794;51.982;5.878;2023-05-23T03:27:47;15.70;99.90
39033;DHT22;24794;51.982;5.878;2023-05-23T03:28:48;15.70;99.90
39033;DHT22;24794;51.982;5.878;2023-05-23T03:29:50;15.70;99.90
39033;DHT22;24794;51.982;5.878;2023-05-23T03:30:51;15.60;99.90
39033;DHT22;24794;51.982;5.878;2023-05-23T03:31:51;15.60;99.90
39033;DHT22;24794;51.982;5.878;2023-05-23T03:32:52;15.50;99.90
39033;DHT22;24794;51.982;5.878;2023-05-23T03:33:53;15.50;99.90
39033;DHT22;24794;51.982;5.878;2023-05-23T03:34:53;15.50;99.90
39033;DHT22;24794;51.982;5.878;2023-05-23T03:35:54;15.50;99.90
39033;DHT22;24794;51.982;5.878;2023-05-23T03:36:56;15.50;99.90
39033;DHT22;24794;51.982;5.878;2023-05-23T03:37:57;15.50;99.90
39033;DHT22;24794;51.982;5.878;2023-05-23T03:38:57;15.50;99.90
39033;DHT22;24794;51.982;5.878;2023-05-23T03:39:58;15.50;99.90
39033;DHT22;24794;51.982;5.878;2023-05-23T03:40:58;15.60;99.90
39033;DHT22;24794;51.982;5.878;2023-05-23T03:41:59;15.60;99.90
39033;DHT22;24794;51.982;5.878;2023-05-23T03:43:04;15.60;99.90
39033;DHT22;24794;51.982;5.878;2023-05-23T03:44:05;15.60;99.90
39033;DHT22;24794;51.982;5.878;2023-05-23T03:45:06;15.60;99.90
39033;DHT22;24794;51.982;5.878;2023-05-23T03:46:06;15.60;99.90
39033;DHT22;24794;51.982;5.878;2023-05-23T03:47:07;15.70;99.90
39033;DHT22;24794;51.982;5.878;2023-05-23T03:48:07;15.70;99.90
39033;DHT22;24794;51.982;5.878;2023-05-23T03:49:08;15.70;99.90
39033;DHT22;24794;51.982;5.878;2023-05-23T03:50:09;15.70;99.90
39033;DHT22;24794;51.982;5.878;2023-05-23T03:51:09;15.70;99.90
39033;DHT22;24794;51.982;5.878;2023-05-23T03:52:12;15.70;99.90
39033;DHT22;24794;51.982;5.878;2023-05-23T03:53:13;15.80;99.90
39033;DHT22;24794;51.982;5.878;2023-05-23T03:54:13;15.80;99.90
39033;DHT22;24794;51.982;5.878;2023-05-23T03:55:14;15.80;99.90
39033;DHT22;24794;51.982;5.878;2023-05-23T03:56:14;15.80;99.90
39033;DHT22;24794;51.982;5.878;2023-05-23T03:57:15;15.90;99.90
39033;DHT22;24794;51.982;5.878;2023-05-23T03:58:15;15.90;99.90
39033;DHT22;24794;51.982;5.878;2023-05-23T03:59:16;15.90;99.90
39033;DHT22;24794;51.982;5.878;2023-05-23T04:00:18;15.90;99.90
39033;DHT22;24794;51.982;5.878;2023-05-23T04:01:18;15.90;99.90
39033;DHT22;24794;51.982;5.878;2023-05-23T04:02:19;15.90;99.90
39033;DHT22;24794;51.982;5.878;2023-05-23T04:03:20;15.90;99.90
39033;DHT22;24794;51.982;5.878;2023-05-23T04:04:20;16.00;99.90
39033;DHT22;24794;51.982;5.878;2023-05-23T04:05:21;16.00;99.90
39033;DHT22;24794;51.982;5.878;2023-05-23T04:06:21;16.00;99.90
39033;DHT22;24794;51.982;5.878;2023-05-23T04:07:22;16.00;99.90
39033;DHT22;24794;51.982;5.878;2023-05-23T04:08:26;16.00;99.90
39033;DHT22;24794;51.982;5.878;2023-05-23T04:09:26;16.00;99.90
39033;DHT22;24794;51.982;5.878;2023-05-23T04:10:27;16.00;99.90
39033;DHT22;24794;51.982;5.878;2023-05-23T04:11:28;16.00;99.90
39033;DHT22;24794;51.982;5.878;2023-05-23T04:12:29;16.00;99.90
39033;DHT22;24794;51.982;5.878;2023-05-23T04:13:29;15.90;99.90
39033;DHT22;24794;51.982;5.878;2023-05-23T04:14:30;16.00;99.90
39033;DHT22;24794;51.982;5.878;2023-05-23T04:15:32;16.00;99.90
39033;DHT22;24794;51.982;5.878;2023-05-23T04:16:34;16.00;99.90
39033;DHT22;24794;51.982;5.878;2023-05-23T04:17:35;16.00;99.90
39033;DHT22;24794;51.982;5.878;2023-05-23T04:18:38;16.00;99.90
39033;DHT22;24794;51.982;5.878;2023-05-23T04:19:39;16.00;99.90
39033;DHT22;24794;51.982;5.878;2023-05-23T04:20:40;16.00;99.90
39033;DHT22;24794;51.982;5.878;2023-05-23T04:21:41;16.00;99.90
39033;DHT22;24794;51.982;5.878;2023-05-23T04:22:41;16.00;99.90
39033;DHT22;24794;51.982;5.878;2023-05-23T04:23:42;16.00;99.90
39033;DHT22;24794;51.982;5.878;2023-05-23T04:24:43;16.00;99.90
39033;DHT22;24794;51.982;5.878;2023-05-23T04:25:43;16.00;99.90
39033;DHT22;24794;51.982;5.878;2023-05-23T04:26:44;16.00;99.90
39033;DHT22;24794;51.982;5.878;2023-05-23T04:27:44;16.00;99.90
39033;DHT22;24794;51.982;5.878;2023-05-23T04:28:46;16.00;99.90
39033;DHT22;24794;51.982;5.878;2023-05-23T04:29:48;16.00;99.90
39033;DHT22;24794;51.982;5.878;2023-05-23T04:30:48;15.90;99.90
39033;DHT22;24794;51.982;5.878;2023-05-23T04:31:49;15.90;99.90
39033;DHT22;24794;51.982;5.878;2023-05-23T04:32:50;15.90;99.90
39033;DHT22;24794;51.982;5.878;2023-05-23T04:33:51;16.00;99.90
39033;DHT22;24794;51.982;5.878;2023-05-23T04:34:52;16.00;99.90
39033;DHT22;24794;51.982;5.878;2023-05-23T04:35:52;16.00;99.90
39033;DHT22;24794;51.982;5.878;2023-05-23T04:36:53;16.00;99.90
39033;DHT22;24794;51.982;5.878;2023-05-23T04:37:56;16.00;99.90
39033;DHT22;24794;51.982;5.878;2023-05-23T04:38:57;16.00;99.90
39033;DHT22;24794;51.982;5.878;2023-05-23T04:39:58;16.00;99.90
39033;DHT22;24794;51.982;5.878;2023-05-23T04:41:01;16.00;99.90
39033;DHT22;24794;51.982;5.878;2023-05-23T04:42:02;15.90;99.90
39033;DHT22;24794;51.982;5.878;2023-05-23T04:43:03;15.90;99.90
39033;DHT22;24794;51.982;5.878;2023-05-23T04:44:03;15.90;99.90
39033;DHT22;24794;51.982;5.878;2023-05-23T04:45:05;15.90;99.90
39033;DHT22;24794;51.982;5.878;2023-05-23T04:46:07;15.90;99.90
39033;DHT22;24794;51.982;5.878;2023-05-23T04:47:07;15.90;99.90
39033;DHT22;24794;51.982;5.878;2023-05-23T04:48:08;15.90;99.90
39033;DHT22;24794;51.982;5.878;2023-05-23T04:49:09;15.90;99.90
39033;DHT22;24794;51.982;5.878;2023-05-23T04:50:10;15.90;99.90
39033;DHT22;24794;51.982;5.878;2023-05-23T04:51:11;15.90;99.90
39033;DHT22;24794;51.982;5.878;2023-05-23T04:52:11;15.90;99.90
39033;DHT22;24794;51.982;5.878;2023-05-23T04:53:12;15.90;99.90
39033;DHT22;24794;51.982;5.878;2023-05-23T04:54:13;15.90;99.90
39033;DHT22;24794;51.982;5.878;2023-05-23T04:55:14;15.80;99.90
39033;DHT22;24794;51.982;5.878;2023-05-23T04:56:15;15.80;99.90
39033;DHT22;24794;51.982;5.878;2023-05-23T04:57:17;15.80;99.90
39033;DHT22;24794;51.982;5.878;2023-05-23T04:58:17;15.80;99.90
39033;DHT22;24794;51.982;5.878;2023-05-23T04:59:18;15.80;99.90
39033;DHT22;24794;51.982;5.878;2023-05-23T05:00:18;15.80;99.90
39033;DHT22;24794;51.982;5.878;2023-05-23T05:01:19;15.70;99.90
39033;DHT22;24794;51.982;5.878;2023-05-23T05:02:20;15.70;99.90
39033;DHT22;24794;51.982;5.878;2023-05-23T05:03:20;15.70;99.90
39033;DHT22;24794;51.982;5.878;2023-05-23T05:04:21;15.70;99.90
39033;DHT22;24794;51.982;5.878;2023-05-23T05:05:22;15.60;99.90
39033;DHT22;24794;51.982;5.878;2023-05-23T05:06:23;15.60;99.90
39033;DHT22;24794;51.982;5.878;2023-05-23T05:07:24;15.60;99.90
39033;DHT22;24794;51.982;5.878;2023-05-23T05:08:24;15.60;99.90
39033;DHT22;24794;51.982;5.878;2023-05-23T05:09:25;15.60;99.90
39033;DHT22;24794;51.982;5.878;2023-05-23T05:10:26;15.50;99.90
39033;DHT22;24794;51.982;5.878;2023-05-23T05:11:26;15.50;99.90
39033;DHT22;24794;51.982;5.878;2023-05-23T05:12:27;15.50;99.90
39033;DHT22;24794;51.982;5.878;2023-05-23T05:13:28;15.50;99.90
39033;DHT22;24794;51.982;5.878;2023-05-23T05:14:29;15.50;99.90
39033;DHT22;24794;51.982;5.878;2023-05-23T05:15:30;15.50;99.90
39033;DHT22;24794;51.982;5.878;2023-05-23T05:16:31;15.50;99.90
39033;DHT22;24794;51.982;5.878;2023-05-23T05:17:32;15.50;99.90
39033;DHT22;24794;51.982;5.878;2023-05-23T05:18:36;15.50;99.90
39033;DHT22;24794;51.982;5.878;2023-05-23T05:19:36;15.50;99.90
39033;DHT22;24794;51.982;5.878;2023-05-23T05:20:37;15.50;99.90
39033;DHT22;24794;51.982;5.878;2023-05-23T05:21:37;15.40;99.90
39033;DHT22;24794;51.982;5.878;2023-05-23T05:22:38;15.40;99.90
39033;DHT22;24794;51.982;5.878;2023-05-23T05:23:42;15.40;99.90
39033;DHT22;24794;51.982;5.878;2023-05-23T05:24:42;15.40;99.90
39033;DHT22;24794;51.982;5.878;2023-05-23T05:25:43;15.40;99.90
39033;DHT22;24794;51.982;5.878;2023-05-23T05:26:43;15.30;99.90
39033;DHT22;24794;51.982;5.878;2023-05-23T05:27:44;15.30;99.90
39033;DHT22;24794;51.982;5.878;2023-05-23T05:28:45;15.30;99.90
39033;DHT22;24794;51.982;5.878;2023-05-23T05:29:45;15.30;99.90
39033;DHT22;24794;51.982;5.878;2023-05-23T05:30:47;15.30;99.90
39033;DHT22;24794;51.982;5.878;2023-05-23T05:31:53;15.30;99.90
39033;DHT22;24794;51.982;5.878;2023-05-23T05:32:53;15.20;99.90
39033;DHT22;24794;51.982;5.878;2023-05-23T05:33:57;15.20;99.90
39033;DHT22;24794;51.982;5.878;2023-05-23T05:34:58;15.30;99.90
39033;DHT22;24794;51.982;5.878;2023-05-23T05:35:59;15.20;99.90
39033;DHT22;24794;51.982;5.878;2023-05-23T05:36:59;15.30;99.90
39033;DHT22;24794;51.982;5.878;2023-05-23T05:38:00;15.20;99.90
39033;DHT22;24794;51.982;5.878;2023-05-23T05:39:04;15.20;99.90
39033;DHT22;24794;51.982;5.878;2023-05-23T05:40:06;15.20;99.90
39033;DHT22;24794;51.982;5.878;2023-05-23T05:41:07;15.20;99.90
39033;DHT22;24794;51.982;5.878;2023-05-23T05:42:08;15.30;99.90
39033;DHT22;24794;51.982;5.878;2023-05-23T05:43:09;15.30;99.90
39033;DHT22;24794;51.982;5.878;2023-05-23T05:44:09;15.30;99.90
39033;DHT22;24794;51.982;5.878;2023-05-23T05:45:10;15.40;99.90
39033;DHT22;24794;51.982;5.878;2023-05-23T05:46:10;15.40;99.90
39033;DHT22;24794;51.982;5.878;2023-05-23T05:47:11;15.40;99.90
39033;DHT22;24794;51.982;5.878;2023-05-23T05:48:12;15.40;99.90
39033;DHT22;24794;51.982;5.878;2023-05-23T05:49:13;15.40;99.90
39033;DHT22;24794;51.982;5.878;2023-05-23T05:50:13;15.50;99.90
39033;DHT22;24794;51.982;5.878;2023-05-23T05:51:14;15.50;99.90
39033;DHT22;24794;51.982;5.878;2023-05-23T05:52:14;15.40;99.90
39033;DHT22;24794;51.982;5.878;2023-05-23T05:53:15;15.40;99.90
39033;DHT22;24794;51.982;5.878;2023-05-23T05:54:16;15.40;99.90
39033;DHT22;24794;51.982;5.878;2023-05-23T05:55:16;15.40;99.90
39033;DHT22;24794;51.982;5.878;2023-05-23T05:56:17;15.40;99.90
39033;DHT22;24794;51.982;5.878;2023-05-23T05:57:18;15.40;99.90
39033;DHT22;24794;51.982;5.878;2023-05-23T05:58:18;15.40;99.90
39033;DHT22;24794;51.982;5.878;2023-05-23T05:59:19;15.30;99.90
39033;DHT22;24794;51.982;5.878;2023-05-23T06:00:19;15.30;99.90
39033;DHT22;24794;51.982;5.878;2023-05-23T06:01:21;15.20;99.90
39033;DHT22;24794;51.982;5.878;2023-05-23T06:02:21;15.20;99.90
39033;DHT22;24794;51.982;5.878;2023-05-23T06:03:22;15.20;99.90
39033;DHT22;24794;51.982;5.878;2023-05-23T06:04:23;15.10;99.90
39033;DHT22;24794;51.982;5.878;2023-05-23T06:05:24;15.10;99.90
39033;DHT22;24794;51.982;5.878;2023-05-23T06:06:25;15.10;99.90
39033;DHT22;24794;51.982;5.878;2023-05-23T06:07:26;15.00;99.90
39033;DHT22;24794;51.982;5.878;2023-05-23T06:08:26;15.00;99.90
39033;DHT22;24794;51.982;5.878;2023-05-23T06:09:27;15.00;99.90
39033;DHT22;24794;51.982;5.878;2023-05-23T06:10:28;15.00;99.90
39033;DHT22;24794;51.982;5.878;2023-05-23T06:11:28;15.00;99.90
39033;DHT22;24794;51.982;5.878;2023-05-23T06:12:29;14.90;99.90
39033;DHT22;24794;51.982;5.878;2023-05-23T06:13:29;15.00;99.90
39033;DHT22;24794;51.982;5.878;2023-05-23T06:14:30;14.90;99.90
39033;DHT22;24794;51.982;5.878;2023-05-23T06:15:30;14.90;99.90
39033;DHT22;24794;51.982;5.878;2023-05-23T06:16:31;14.90;99.90
39033;DHT22;24794;51.982;5.878;2023-05-23T06:17:31;14.90;99.90
39033;DHT22;24794;51.982;5.878;2023-05-23T06:18:32;14.90;99.90
39033;DHT22;24794;51.982;5.878;2023-05-23T06:19:32;14.90;99.90
39033;DHT22;24794;51.982;5.878;2023-05-23T06:20:34;14.90;99.90
39033;DHT22;24794;51.982;5.878;2023-05-23T06:21:34;14.90;99.90
39033;DHT22;24794;51.982;5.878;2023-05-23T06:23:12;14.90;99.90
39033;DHT22;24794;51.982;5.878;2023-05-23T06:24:13;14.80;99.90
39033;DHT22;24794;51.982;5.878;2023-05-23T06:25:14;14.80;99.90
39033;DHT22;24794;51.982;5.878;2023-05-23T06:26:15;14.80;99.90
39033;DHT22;24794;51.982;5.878;2023-05-23T06:27:15;14.80;99.90
39033;DHT22;24794;51.982;5.878;2023-05-23T06:28:16;14.70;99.90
39033;DHT22;24794;51.982;5.878;2023-05-23T06:29:16;14.80;99.90
39033;DHT22;24794;51.982;5.878;2023-05-23T06:30:17;14.80;99.90
39033;DHT22;24794;51.982;5.878;2023-05-23T06:31:17;14.70;99.90
39033;DHT22;24794;51.982;5.878;2023-05-23T06:32:18;14.80;99.90
39033;DHT22;24794;51.982;5.878;2023-05-23T06:33:49;14.80;99.90
39033;DHT22;24794;51.982;5.878;2023-05-23T06:34:50;14.80;99.90